sensor_id;sensor_type;location;lat;lon;timestamp;P1;durP1;ratioP1;P2;durP2;ratioP2
8312;SDS011;4194;43.408;24.626;2022-08-01T00:00:13;2.47;;;1.87;;
8312;SDS011;4194;43.408;24.626;2022-08-01T00:02:39;2.00;;;1.80;;
8312;SDS011;4194;43.408;24.626;2022-08-01T00:05:06;2.00;;;1.90;;
8312;SDS011;4194;43.408;24.626;2022-08-01T00:07:35;2.83;;;1.80;;
8312;SDS011;4194;43.408;24.626;2022-08-01T00:10:02;3.07;;;1.87;;
8312;SDS011;4194;43.408;24.626;2022-08-01T00:12:29;1.57;;;1.47;;
8312;SDS011;4194;43.408;24.626;2022-08-01T00:14:55;2.23;;;1.63;;
8312;SDS011;4194;43.408;24.626;2022-08-01T00:17:21;2.90;;;1.60;;
8312;SDS011;4194;43.408;24.626;2022-08-01T00:19:46;4.77;;;1.30;;
8312;SDS011;4194;43.408;24.626;2022-08-01T00:22:12;2.10;;;1.53;;
8312;SDS011;4194;43.408;24.626;2022-08-01T00:24:38;1.60;;;1.30;;
8312;SDS011;4194;43.408;24.626;2022-08-01T00:27:03;3.83;;;1.50;;
8312;SDS011;4194;43.408;24.626;2022-08-01T00:29:29;2.77;;;1.30;;
8312;SDS011;4194;43.408;24.626;2022-08-01T00:31:55;1.73;;;1.27;;
8312;SDS011;4194;43.408;24.626;2022-08-01T00:34:20;2.30;;;1.60;;
8312;SDS011;4194;43.408;24.626;2022-08-01T00:36:46;2.20;;;1.43;;
8312;SDS011;4194;43.408;24.626;2022-08-01T00:39:12;3.47;;;1.53;;
8312;SDS011;4194;43.408;24.626;2022-08-01T00:41:38;1.80;;;1.30;;
8312;SDS011;4194;43.408;24.626;2022-08-01T00:44:04;3.63;;;1.40;;
8312;SDS011;4194;43.408;24.626;2022-08-01T00:46:31;5.37;;;1.40;;
8312;SDS011;4194;43.408;24.626;2022-08-01T00:48:58;2.47;;;1.70;;
8312;SDS011;4194;43.408;24.626;2022-08-01T00:51:24;5.40;;;1.63;;
8312;SDS011;4194;43.408;24.626;2022-08-01T00:53:51;4.40;;;1.50;;
8312;SDS011;4194;43.408;24.626;2022-08-01T00:56:18;12.50;;;1.63;;
8312;SDS011;4194;43.408;24.626;2022-08-01T00:58:45;4.90;;;1.77;;
8312;SDS011;4194;43.408;24.626;2022-08-01T01:01:11;3.33;;;1.50;;
8312;SDS011;4194;43.408;24.626;2022-08-01T01:03:37;1.63;;;1.40;;
8312;SDS011;4194;43.408;24.626;2022-08-01T01:08:35;4.47;;;1.57;;
8312;SDS011;4194;43.408;24.626;2022-08-01T01:11:10;1.73;;;1.20;;
8312;SDS011;4194;43.408;24.626;2022-08-01T01:13:52;2.33;;;1.40;;
8312;SDS011;4194;43.408;24.626;2022-08-01T01:16:22;2.57;;;1.37;;
8312;SDS011;4194;43.408;24.626;2022-08-01T01:18:51;4.17;;;1.70;;
8312;SDS011;4194;43.408;24.626;2022-08-01T01:31:50;1.83;;;1.20;;
8312;SDS011;4194;43.408;24.626;2022-08-01T01:34:18;3.37;;;1.70;;
8312;SDS011;4194;43.408;24.626;2022-08-01T01:36:47;3.17;;;1.73;;
8312;SDS011;4194;43.408;24.626;2022-08-01T01:39:14;3.97;;;1.47;;
8312;SDS011;4194;43.408;24.626;2022-08-01T01:41:41;4.03;;;1.63;;
8312;SDS011;4194;43.408;24.626;2022-08-01T01:44:09;2.90;;;1.50;;
8312;SDS011;4194;43.408;24.626;2022-08-01T01:46:36;1.40;;;1.20;;
8312;SDS011;4194;43.408;24.626;2022-08-01T01:49:02;1.40;;;1.30;;
8312;SDS011;4194;43.408;24.626;2022-08-01T01:51:30;1.80;;;1.70;;
8312;SDS011;4194;43.408;24.626;2022-08-01T01:53:57;1.70;;;1.60;;
8312;SDS011;4194;43.408;24.626;2022-08-01T01:56:24;2.10;;;1.30;;
8312;SDS011;4194;43.408;24.626;2022-08-01T01:58:53;3.90;;;1.50;;
8312;SDS011;4194;43.408;24.626;2022-08-01T02:01:21;2.43;;;1.60;;
8312;SDS011;4194;43.408;24.626;2022-08-01T02:03:50;2.03;;;1.37;;
8312;SDS011;4194;43.408;24.626;2022-08-01T02:06:18;3.67;;;1.53;;
8312;SDS011;4194;43.408;24.626;2022-08-01T02:08:45;2.63;;;1.40;;
8312;SDS011;4194;43.408;24.626;2022-08-01T02:11:12;2.33;;;1.60;;
8312;SDS011;4194;43.408;24.626;2022-08-01T02:14:05;2.40;;;1.30;;
8312;SDS011;4194;43.408;24.626;2022-08-01T02:16:34;2.13;;;1.40;;
8312;SDS011;4194;43.408;24.626;2022-08-01T02:19:02;1.60;;;1.50;;
8312;SDS011;4194;43.408;24.626;2022-08-01T02:21:38;3.23;;;1.33;;
8312;SDS011;4194;43.408;24.626;2022-08-01T02:24:21;3.67;;;1.50;;
8312;SDS011;4194;43.408;24.626;2022-08-01T02:26:56;5.87;;;1.30;;
8312;SDS011;4194;43.408;24.626;2022-08-01T02:29:43;2.67;;;1.30;;
8312;SDS011;4194;43.408;24.626;2022-08-01T02:32:31;3.53;;;1.53;;
8312;SDS011;4194;43.408;24.626;2022-08-01T02:35:02;3.20;;;1.20;;
8312;SDS011;4194;43.408;24.626;2022-08-01T02:37:33;1.40;;;1.30;;
8312;SDS011;4194;43.408;24.626;2022-08-01T02:40:01;1.57;;;1.40;;
8312;SDS011;4194;43.408;24.626;2022-08-01T02:42:28;3.13;;;1.47;;
8312;SDS011;4194;43.408;24.626;2022-08-01T02:44:55;1.30;;;1.20;;
8312;SDS011;4194;43.408;24.626;2022-08-01T02:47:22;1.50;;;1.40;;
8312;SDS011;4194;43.408;24.626;2022-08-01T02:49:50;1.70;;;1.60;;
8312;SDS011;4194;43.408;24.626;2022-08-01T02:52:17;3.17;;;1.23;;
8312;SDS011;4194;43.408;24.626;2022-08-01T02:54:47;1.60;;;1.40;;
8312;SDS011;4194;43.408;24.626;2022-08-01T02:57:15;1.57;;;1.37;;
8312;SDS011;4194;43.408;24.626;2022-08-01T02:59:43;2.30;;;1.57;;
8312;SDS011;4194;43.408;24.626;2022-08-01T03:02:09;3.60;;;1.50;;
8312;SDS011;4194;43.408;24.626;2022-08-01T03:04:37;4.10;;;1.53;;
8312;SDS011;4194;43.408;24.626;2022-08-01T03:07:05;2.23;;;1.37;;
8312;SDS011;4194;43.408;24.626;2022-08-01T03:09:34;1.57;;;1.43;;
8312;SDS011;4194;43.408;24.626;2022-08-01T03:12:06;5.17;;;1.50;;
8312;SDS011;4194;43.408;24.626;2022-08-01T03:14:36;1.50;;;1.40;;
8312;SDS011;4194;43.408;24.626;2022-08-01T03:17:04;2.23;;;1.63;;
8312;SDS011;4194;43.408;24.626;2022-08-01T03:19:32;2.20;;;1.77;;
8312;SDS011;4194;43.408;24.626;2022-08-01T03:21:59;1.47;;;1.30;;
8312;SDS011;4194;43.408;24.626;2022-08-01T03:24:28;1.67;;;1.33;;
8312;SDS011;4194;43.408;24.626;2022-08-01T03:26:56;3.13;;;1.40;;
8312;SDS011;4194;43.408;24.626;2022-08-01T03:29:24;2.90;;;1.53;;
8312;SDS011;4194;43.408;24.626;2022-08-01T03:31:52;2.97;;;1.43;;
8312;SDS011;4194;43.408;24.626;2022-08-01T03:34:18;1.40;;;1.30;;
8312;SDS011;4194;43.408;24.626;2022-08-01T03:36:47;2.40;;;1.37;;
8312;SDS011;4194;43.408;24.626;2022-08-01T03:39:14;1.60;;;1.40;;
8312;SDS011;4194;43.408;24.626;2022-08-01T03:41:43;5.00;;;2.00;;
8312;SDS011;4194;43.408;24.626;2022-08-01T03:44:14;5.70;;;1.47;;
8312;SDS011;4194;43.408;24.626;2022-08-01T03:46:45;2.73;;;1.50;;
8312;SDS011;4194;43.408;24.626;2022-08-01T03:49:22;1.73;;;1.40;;
8312;SDS011;4194;43.408;24.626;2022-08-01T03:51:52;3.23;;;1.40;;
8312;SDS011;4194;43.408;24.626;2022-08-01T03:54:23;3.53;;;1.80;;
8312;SDS011;4194;43.408;24.626;2022-08-01T03:56:51;2.60;;;1.60;;
8312;SDS011;4194;43.408;24.626;2022-08-01T03:59:18;1.33;;;1.20;;
8312;SDS011;4194;43.408;24.626;2022-08-01T04:01:45;1.60;;;1.33;;
8312;SDS011;4194;43.408;24.626;2022-08-01T04:04:12;2.57;;;1.30;;
8312;SDS011;4194;43.408;24.626;2022-08-01T04:06:39;6.50;;;1.70;;
8312;SDS011;4194;43.408;24.626;2022-08-01T04:09:08;2.20;;;1.50;;
8312;SDS011;4194;43.408;24.626;2022-08-01T04:11:34;3.23;;;1.97;;
8312;SDS011;4194;43.408;24.626;2022-08-01T04:14:00;3.43;;;2.17;;
8312;SDS011;4194;43.408;24.626;2022-08-01T04:16:26;3.03;;;1.70;;
8312;SDS011;4194;43.408;24.626;2022-08-01T04:18:52;1.97;;;1.37;;
8312;SDS011;4194;43.408;24.626;2022-08-01T04:21:18;7.17;;;1.60;;
8312;SDS011;4194;43.408;24.626;2022-08-01T04:23:46;5.37;;;1.60;;
8312;SDS011;4194;43.408;24.626;2022-08-01T04:26:13;3.87;;;1.60;;
8312;SDS011;4194;43.408;24.626;2022-08-01T04:28:41;3.90;;;1.47;;
8312;SDS011;4194;43.408;24.626;2022-08-01T04:31:09;2.70;;;1.57;;
8312;SDS011;4194;43.408;24.626;2022-08-01T04:33:38;1.87;;;1.50;;
8312;SDS011;4194;43.408;24.626;2022-08-01T04:36:07;2.93;;;1.40;;
8312;SDS011;4194;43.408;24.626;2022-08-01T04:38:37;4.13;;;1.47;;
8312;SDS011;4194;43.408;24.626;2022-08-01T04:41:06;5.47;;;1.80;;
8312;SDS011;4194;43.408;24.626;2022-08-01T04:43:34;4.73;;;1.57;;
8312;SDS011;4194;43.408;24.626;2022-08-01T04:46:03;6.47;;;2.23;;
8312;SDS011;4194;43.408;24.626;2022-08-01T04:48:34;2.47;;;1.23;;
8312;SDS011;4194;43.408;24.626;2022-08-01T04:51:03;3.00;;;1.50;;
8312;SDS011;4194;43.408;24.626;2022-08-01T04:53:29;3.00;;;1.47;;
8312;SDS011;4194;43.408;24.626;2022-08-01T04:55:57;8.07;;;1.63;;
8312;SDS011;4194;43.408;24.626;2022-08-01T04:58:23;2.53;;;1.20;;
8312;SDS011;4194;43.408;24.626;2022-08-01T05:00:48;2.87;;;1.60;;
8312;SDS011;4194;43.408;24.626;2022-08-01T05:03:14;4.83;;;1.40;;
8312;SDS011;4194;43.408;24.626;2022-08-01T05:05:40;2.53;;;1.50;;
8312;SDS011;4194;43.408;24.626;2022-08-01T05:08:07;2.70;;;1.27;;
8312;SDS011;4194;43.408;24.626;2022-08-01T05:10:32;3.10;;;1.20;;
8312;SDS011;4194;43.408;24.626;2022-08-01T05:12:58;3.83;;;1.80;;
8312;SDS011;4194;43.408;24.626;2022-08-01T05:15:24;4.53;;;1.60;;
8312;SDS011;4194;43.408;24.626;2022-08-01T05:17:50;3.10;;;1.53;;
8312;SDS011;4194;43.408;24.626;2022-08-01T05:20:16;2.07;;;1.50;;
8312;SDS011;4194;43.408;24.626;2022-08-01T05:22:42;5.90;;;1.60;;
8312;SDS011;4194;43.408;24.626;2022-08-01T05:25:07;1.67;;;1.40;;
8312;SDS011;4194;43.408;24.626;2022-08-01T05:27:33;4.33;;;1.60;;
8312;SDS011;4194;43.408;24.626;2022-08-01T05:30:05;2.87;;;1.53;;
8312;SDS011;4194;43.408;24.626;2022-08-01T05:32:34;2.63;;;1.50;;
8312;SDS011;4194;43.408;24.626;2022-08-01T05:35:00;1.30;;;1.20;;
8312;SDS011;4194;43.408;24.626;2022-08-01T05:37:26;1.60;;;1.50;;
8312;SDS011;4194;43.408;24.626;2022-08-01T05:39:52;3.00;;;1.57;;
8312;SDS011;4194;43.408;24.626;2022-08-01T05:42:17;1.53;;;1.23;;
8312;SDS011;4194;43.408;24.626;2022-08-01T05:44:43;2.87;;;1.37;;
8312;SDS011;4194;43.408;24.626;2022-08-01T05:47:09;4.73;;;1.33;;
8312;SDS011;4194;43.408;24.626;2022-08-01T05:49:34;2.80;;;1.37;;
8312;SDS011;4194;43.408;24.626;2022-08-01T05:52:00;1.33;;;1.23;;
8312;SDS011;4194;43.408;24.626;2022-08-01T05:54:26;4.53;;;1.50;;
8312;SDS011;4194;43.408;24.626;2022-08-01T05:56:52;1.83;;;1.43;;
8312;SDS011;4194;43.408;24.626;2022-08-01T05:59:19;3.97;;;1.57;;
8312;SDS011;4194;43.408;24.626;2022-08-01T06:01:45;4.33;;;1.17;;
8312;SDS011;4194;43.408;24.626;2022-08-01T06:04:11;1.47;;;1.33;;
8312;SDS011;4194;43.408;24.626;2022-08-01T06:06:37;2.03;;;1.43;;
8312;SDS011;4194;43.408;24.626;2022-08-01T06:09:02;4.87;;;1.47;;
8312;SDS011;4194;43.408;24.626;2022-08-01T06:11:28;2.10;;;1.47;;
8312;SDS011;4194;43.408;24.626;2022-08-01T06:13:54;4.83;;;1.60;;
8312;SDS011;4194;43.408;24.626;2022-08-01T06:16:20;6.27;;;1.73;;
8312;SDS011;4194;43.408;24.626;2022-08-01T06:18:45;4.30;;;1.30;;
8312;SDS011;4194;43.408;24.626;2022-08-01T06:21:11;2.23;;;1.50;;
8312;SDS011;4194;43.408;24.626;2022-08-01T06:23:37;4.83;;;1.50;;
8312;SDS011;4194;43.408;24.626;2022-08-01T06:26:02;13.97;;;2.47;;
8312;SDS011;4194;43.408;24.626;2022-08-01T06:28:28;3.60;;;1.60;;
8312;SDS011;4194;43.408;24.626;2022-08-01T06:30:54;3.60;;;1.30;;
8312;SDS011;4194;43.408;24.626;2022-08-01T06:33:20;1.60;;;1.30;;
8312;SDS011;4194;43.408;24.626;2022-08-01T06:35:46;4.50;;;2.10;;
8312;SDS011;4194;43.408;24.626;2022-08-01T06:38:11;1.40;;;1.07;;
8312;SDS011;4194;43.408;24.626;2022-08-01T06:40:37;3.00;;;1.40;;
8312;SDS011;4194;43.408;24.626;2022-08-01T06:43:03;2.70;;;1.30;;
8312;SDS011;4194;43.408;24.626;2022-08-01T06:45:29;8.97;;;1.33;;
8312;SDS011;4194;43.408;24.626;2022-08-01T06:47:54;3.90;;;1.27;;
8312;SDS011;4194;43.408;24.626;2022-08-01T06:50:20;2.83;;;1.00;;
8312;SDS011;4194;43.408;24.626;2022-08-01T06:52:46;4.87;;;1.20;;
8312;SDS011;4194;43.408;24.626;2022-08-01T06:55:12;3.57;;;1.23;;
8312;SDS011;4194;43.408;24.626;2022-08-01T06:57:44;1.50;;;1.40;;
8312;SDS011;4194;43.408;24.626;2022-08-01T07:00:11;0.93;;;0.90;;
8312;SDS011;4194;43.408;24.626;2022-08-01T07:02:38;4.20;;;1.27;;
8312;SDS011;4194;43.408;24.626;2022-08-01T07:05:03;4.47;;;1.13;;
8312;SDS011;4194;43.408;24.626;2022-08-01T07:07:30;2.00;;;1.23;;
8312;SDS011;4194;43.408;24.626;2022-08-01T07:09:56;1.43;;;1.30;;
8312;SDS011;4194;43.408;24.626;2022-08-01T07:12:22;2.50;;;1.23;;
8312;SDS011;4194;43.408;24.626;2022-08-01T07:14:47;3.87;;;1.13;;
8312;SDS011;4194;43.408;24.626;2022-08-01T07:17:13;1.47;;;1.37;;
8312;SDS011;4194;43.408;24.626;2022-08-01T07:19:39;2.47;;;1.20;;
8312;SDS011;4194;43.408;24.626;2022-08-01T07:22:04;5.23;;;1.50;;
8312;SDS011;4194;43.408;24.626;2022-08-01T07:24:30;3.60;;;1.30;;
8312;SDS011;4194;43.408;24.626;2022-08-01T07:26:56;2.57;;;1.50;;
8312;SDS011;4194;43.408;24.626;2022-08-01T07:29:26;2.03;;;1.07;;
8312;SDS011;4194;43.408;24.626;2022-08-01T07:31:55;1.57;;;1.10;;
8312;SDS011;4194;43.408;24.626;2022-08-01T07:34:22;2.60;;;1.20;;
8312;SDS011;4194;43.408;24.626;2022-08-01T07:36:48;1.93;;;1.20;;
8312;SDS011;4194;43.408;24.626;2022-08-01T07:39:14;1.43;;;1.30;;
8312;SDS011;4194;43.408;24.626;2022-08-01T07:41:40;2.77;;;1.20;;
8312;SDS011;4194;43.408;24.626;2022-08-01T07:44:06;1.87;;;1.43;;
8312;SDS011;4194;43.408;24.626;2022-08-01T07:46:33;3.50;;;1.00;;
8312;SDS011;4194;43.408;24.626;2022-08-01T07:48:59;5.50;;;1.67;;
8312;SDS011;4194;43.408;24.626;2022-08-01T07:51:25;1.83;;;1.20;;
8312;SDS011;4194;43.408;24.626;2022-08-01T07:53:51;4.63;;;1.20;;
8312;SDS011;4194;43.408;24.626;2022-08-01T07:56:17;1.87;;;1.20;;
8312;SDS011;4194;43.408;24.626;2022-08-01T07:58:44;1.00;;;0.90;;
8312;SDS011;4194;43.408;24.626;2022-08-01T08:01:11;2.30;;;0.93;;
8312;SDS011;4194;43.408;24.626;2022-08-01T08:03:37;0.90;;;0.83;;
8312;SDS011;4194;43.408;24.626;2022-08-01T08:06:03;1.00;;;1.00;;
8312;SDS011;4194;43.408;24.626;2022-08-01T08:08:28;1.10;;;0.90;;
8312;SDS011;4194;43.408;24.626;2022-08-01T08:10:54;1.10;;;1.00;;
8312;SDS011;4194;43.408;24.626;2022-08-01T08:13:20;3.33;;;1.10;;
8312;SDS011;4194;43.408;24.626;2022-08-01T08:15:45;4.20;;;1.30;;
8312;SDS011;4194;43.408;24.626;2022-08-01T08:18:11;4.97;;;1.40;;
8312;SDS011;4194;43.408;24.626;2022-08-01T08:20:37;1.47;;;1.20;;
8312;SDS011;4194;43.408;24.626;2022-08-01T08:23:03;1.97;;;0.90;;
8312;SDS011;4194;43.408;24.626;2022-08-01T08:25:49;1.10;;;1.10;;
8312;SDS011;4194;43.408;24.626;2022-08-01T08:28:14;1.00;;;0.80;;
8312;SDS011;4194;43.408;24.626;2022-08-01T08:30:40;5.77;;;1.30;;
8312;SDS011;4194;43.408;24.626;2022-08-01T08:33:05;2.63;;;0.90;;
8312;SDS011;4194;43.408;24.626;2022-08-01T08:35:31;2.23;;;1.23;;
8312;SDS011;4194;43.408;24.626;2022-08-01T08:37:57;4.57;;;1.37;;
8312;SDS011;4194;43.408;24.626;2022-08-01T08:40:23;2.00;;;1.10;;
8312;SDS011;4194;43.408;24.626;2022-08-01T08:42:54;1.13;;;0.90;;
8312;SDS011;4194;43.408;24.626;2022-08-01T08:45:21;1.00;;;1.00;;
8312;SDS011;4194;43.408;24.626;2022-08-01T08:47:47;2.57;;;1.10;;
8312;SDS011;4194;43.408;24.626;2022-08-01T08:50:15;3.10;;;0.90;;
8312;SDS011;4194;43.408;24.626;2022-08-01T08:52:41;2.63;;;0.80;;
8312;SDS011;4194;43.408;24.626;2022-08-01T08:55:09;3.43;;;0.77;;
8312;SDS011;4194;43.408;24.626;2022-08-01T08:57:39;2.70;;;1.10;;
8312;SDS011;4194;43.408;24.626;2022-08-01T09:00:06;2.40;;;0.80;;
8312;SDS011;4194;43.408;24.626;2022-08-01T09:02:32;1.13;;;1.00;;
8312;SDS011;4194;43.408;24.626;2022-08-01T09:04:58;2.47;;;0.80;;
8312;SDS011;4194;43.408;24.626;2022-08-01T09:07:24;1.47;;;1.03;;
8312;SDS011;4194;43.408;24.626;2022-08-01T09:09:51;1.67;;;0.80;;
8312;SDS011;4194;43.408;24.626;2022-08-01T09:12:17;3.80;;;1.00;;
8312;SDS011;4194;43.408;24.626;2022-08-01T09:14:45;1.53;;;1.43;;
8312;SDS011;4194;43.408;24.626;2022-08-01T09:17:12;2.07;;;0.77;;
8312;SDS011;4194;43.408;24.626;2022-08-01T09:19:38;3.30;;;0.80;;
8312;SDS011;4194;43.408;24.626;2022-08-01T09:22:06;3.67;;;1.00;;
8312;SDS011;4194;43.408;24.626;2022-08-01T09:24:34;3.63;;;1.00;;
8312;SDS011;4194;43.408;24.626;2022-08-01T09:27:00;4.43;;;1.17;;
8312;SDS011;4194;43.408;24.626;2022-08-01T09:29:40;5.90;;;1.13;;
8312;SDS011;4194;43.408;24.626;2022-08-01T09:32:06;2.70;;;0.97;;
8312;SDS011;4194;43.408;24.626;2022-08-01T09:34:32;1.70;;;0.90;;
8312;SDS011;4194;43.408;24.626;2022-08-01T09:36:58;1.43;;;1.10;;
8312;SDS011;4194;43.408;24.626;2022-08-01T09:39:26;1.47;;;1.10;;
8312;SDS011;4194;43.408;24.626;2022-08-01T09:41:57;4.07;;;1.00;;
8312;SDS011;4194;43.408;24.626;2022-08-01T09:44:39;1.13;;;0.80;;
8312;SDS011;4194;43.408;24.626;2022-08-01T09:47:09;0.83;;;0.70;;
8312;SDS011;4194;43.408;24.626;2022-08-01T09:49:40;1.97;;;1.10;;
8312;SDS011;4194;43.408;24.626;2022-08-01T09:52:13;0.90;;;0.90;;
8312;SDS011;4194;43.408;24.626;2022-08-01T09:54:44;0.80;;;0.80;;
8312;SDS011;4194;43.408;24.626;2022-08-01T09:57:21;2.37;;;1.23;;
8312;SDS011;4194;43.408;24.626;2022-08-01T09:59:48;2.93;;;1.20;;
8312;SDS011;4194;43.408;24.626;2022-08-01T10:02:31;1.00;;;0.90;;
8312;SDS011;4194;43.408;24.626;2022-08-01T10:04:59;4.07;;;1.10;;
8312;SDS011;4194;43.408;24.626;2022-08-01T10:07:26;1.50;;;0.70;;
8312;SDS011;4194;43.408;24.626;2022-08-01T10:09:52;0.90;;;0.90;;
8312;SDS011;4194;43.408;24.626;2022-08-01T10:12:19;2.57;;;1.10;;
8312;SDS011;4194;43.408;24.626;2022-08-01T10:14:49;3.43;;;0.90;;
8312;SDS011;4194;43.408;24.626;2022-08-01T10:17:17;2.30;;;1.00;;
8312;SDS011;4194;43.408;24.626;2022-08-01T10:19:44;2.03;;;0.70;;
8312;SDS011;4194;43.408;24.626;2022-08-01T10:22:13;1.73;;;0.90;;
8312;SDS011;4194;43.408;24.626;2022-08-01T10:24:41;3.60;;;0.90;;
8312;SDS011;4194;43.408;24.626;2022-08-01T10:27:14;2.93;;;1.20;;
8312;SDS011;4194;43.408;24.626;2022-08-01T10:29:51;4.13;;;1.10;;
8312;SDS011;4194;43.408;24.626;2022-08-01T10:32:33;1.50;;;0.87;;
8312;SDS011;4194;43.408;24.626;2022-08-01T10:35:00;2.30;;;1.00;;
8312;SDS011;4194;43.408;24.626;2022-08-01T10:37:26;1.10;;;1.00;;
8312;SDS011;4194;43.408;24.626;2022-08-01T10:39:53;2.03;;;0.83;;
8312;SDS011;4194;43.408;24.626;2022-08-01T10:42:19;1.50;;;0.90;;
8312;SDS011;4194;43.408;24.626;2022-08-01T10:44:45;0.80;;;0.70;;
8312;SDS011;4194;43.408;24.626;2022-08-01T10:47:13;0.67;;;0.67;;
8312;SDS011;4194;43.408;24.626;2022-08-01T10:49:47;2.63;;;0.93;;
8312;SDS011;4194;43.408;24.626;2022-08-01T10:52:19;2.93;;;0.87;;
8312;SDS011;4194;43.408;24.626;2022-08-01T10:54:45;0.60;;;0.60;;
8312;SDS011;4194;43.408;24.626;2022-08-01T10:57:12;1.13;;;0.80;;
8312;SDS011;4194;43.408;24.626;2022-08-01T10:59:48;0.67;;;0.67;;
8312;SDS011;4194;43.408;24.626;2022-08-01T11:02:26;0.77;;;0.50;;
8312;SDS011;4194;43.408;24.626;2022-08-01T11:05:00;1.53;;;0.80;;
8312;SDS011;4194;43.408;24.626;2022-08-01T11:07:43;1.15;;;0.70;;
8312;SDS011;4194;43.408;24.626;2022-08-01T11:10:19;3.28;;;0.90;;
8312;SDS011;4194;43.408;24.626;2022-08-01T11:13:07;1.52;;;0.70;;
8312;SDS011;4194;43.408;24.626;2022-08-01T11:15:36;2.22;;;0.80;;
8312;SDS011;4194;43.408;24.626;2022-08-01T11:20:56;0.50;;;0.50;;
8312;SDS011;4194;43.408;24.626;2022-08-01T11:23:24;0.90;;;0.90;;
8312;SDS011;4194;43.408;24.626;2022-08-01T11:30:54;0.75;;;0.75;;
8312;SDS011;4194;43.408;24.626;2022-08-01T11:49:23;0.55;;;0.55;;
8312;SDS011;4194;43.408;24.626;2022-08-01T11:55:01;0.70;;;0.60;;
8312;SDS011;4194;43.408;24.626;2022-08-01T11:57:32;0.70;;;0.70;;
8312;SDS011;4194;43.408;24.626;2022-08-01T12:02:35;0.70;;;0.70;;
8312;SDS011;4194;43.408;24.626;2022-08-01T12:07:32;0.63;;;0.63;;
8312;SDS011;4194;43.408;24.626;2022-08-01T12:10:06;0.60;;;0.60;;
8312;SDS011;4194;43.408;24.626;2022-08-01T12:12:34;1.48;;;0.60;;
8312;SDS011;4194;43.408;24.626;2022-08-01T12:15:01;2.15;;;0.80;;
8312;SDS011;4194;43.408;24.626;2022-08-01T12:17:29;1.00;;;0.88;;
8312;SDS011;4194;43.408;24.626;2022-08-01T12:20:01;2.58;;;0.70;;
8312;SDS011;4194;43.408;24.626;2022-08-01T12:22:29;0.85;;;0.60;;
8312;SDS011;4194;43.408;24.626;2022-08-01T12:24:55;1.50;;;0.73;;
8312;SDS011;4194;43.408;24.626;2022-08-01T12:27:28;2.60;;;0.68;;
8312;SDS011;4194;43.408;24.626;2022-08-01T12:29:55;0.73;;;0.73;;
8312;SDS011;4194;43.408;24.626;2022-08-01T12:32:23;4.45;;;0.65;;
8312;SDS011;4194;43.408;24.626;2022-08-01T12:34:57;1.20;;;0.88;;
8312;SDS011;4194;43.408;24.626;2022-08-01T12:37:27;2.38;;;1.33;;
8312;SDS011;4194;43.408;24.626;2022-08-01T12:39:53;0.60;;;0.60;;
8312;SDS011;4194;43.408;24.626;2022-08-01T12:42:20;0.88;;;0.88;;
8312;SDS011;4194;43.408;24.626;2022-08-01T12:44:48;1.40;;;0.65;;
8312;SDS011;4194;43.408;24.626;2022-08-01T12:47:16;0.77;;;0.77;;
8312;SDS011;4194;43.408;24.626;2022-08-01T12:49:44;2.22;;;0.70;;
8312;SDS011;4194;43.408;24.626;2022-08-01T12:52:10;3.60;;;0.60;;
8312;SDS011;4194;43.408;24.626;2022-08-01T12:57:25;1.40;;;0.70;;
8312;SDS011;4194;43.408;24.626;2022-08-01T13:00:04;3.13;;;0.65;;
8312;SDS011;4194;43.408;24.626;2022-08-01T13:02:35;1.58;;;0.52;;
8312;SDS011;4194;43.408;24.626;2022-08-01T13:05:01;1.15;;;0.60;;
8312;SDS011;4194;43.408;24.626;2022-08-01T13:07:38;1.63;;;0.70;;
8312;SDS011;4194;43.408;24.626;2022-08-01T13:10:06;2.42;;;0.50;;
8312;SDS011;4194;43.408;24.626;2022-08-01T13:12:33;2.28;;;0.75;;
8312;SDS011;4194;43.408;24.626;2022-08-01T13:14:59;1.60;;;0.60;;
8312;SDS011;4194;43.408;24.626;2022-08-01T13:17:34;2.67;;;0.80;;
8312;SDS011;4194;43.408;24.626;2022-08-01T13:20:05;2.75;;;0.93;;
8312;SDS011;4194;43.408;24.626;2022-08-01T13:22:34;2.10;;;0.63;;
8312;SDS011;4194;43.408;24.626;2022-08-01T13:25:14;3.90;;;0.85;;
8312;SDS011;4194;43.408;24.626;2022-08-01T13:27:40;1.90;;;0.50;;
8312;SDS011;4194;43.408;24.626;2022-08-01T13:30:10;1.67;;;0.63;;
8312;SDS011;4194;43.408;24.626;2022-08-01T13:32:36;0.40;;;0.40;;
8312;SDS011;4194;43.408;24.626;2022-08-01T13:35:09;1.13;;;0.63;;
8312;SDS011;4194;43.408;24.626;2022-08-01T13:37:37;0.47;;;0.40;;
8312;SDS011;4194;43.408;24.626;2022-08-01T13:40:04;2.15;;;0.50;;
8312;SDS011;4194;43.408;24.626;2022-08-01T13:42:30;0.77;;;0.50;;
8312;SDS011;4194;43.408;24.626;2022-08-01T13:44:57;0.45;;;0.45;;
8312;SDS011;4194;43.408;24.626;2022-08-01T13:47:22;0.52;;;0.40;;
8312;SDS011;4194;43.408;24.626;2022-08-01T13:49:48;3.33;;;0.45;;
8312;SDS011;4194;43.408;24.626;2022-08-01T13:52:14;1.38;;;0.50;;
8312;SDS011;4194;43.408;24.626;2022-08-01T13:54:40;0.80;;;0.40;;
8312;SDS011;4194;43.408;24.626;2022-08-01T13:57:06;0.85;;;0.65;;
8312;SDS011;4194;43.408;24.626;2022-08-01T13:59:31;1.27;;;0.50;;
8312;SDS011;4194;43.408;24.626;2022-08-01T14:01:57;0.93;;;0.65;;
8312;SDS011;4194;43.408;24.626;2022-08-01T14:04:23;2.58;;;0.60;;
8312;SDS011;4194;43.408;24.626;2022-08-01T14:06:48;0.70;;;0.60;;
8312;SDS011;4194;43.408;24.626;2022-08-01T14:09:14;0.60;;;0.50;;
8312;SDS011;4194;43.408;24.626;2022-08-01T14:11:42;0.70;;;0.70;;
8312;SDS011;4194;43.408;24.626;2022-08-01T14:14:08;0.90;;;0.80;;
8312;SDS011;4194;43.408;24.626;2022-08-01T14:16:34;3.35;;;0.63;;
8312;SDS011;4194;43.408;24.626;2022-08-01T14:19:02;1.05;;;0.60;;
8312;SDS011;4194;43.408;24.626;2022-08-01T14:21:28;0.82;;;0.63;;
8312;SDS011;4194;43.408;24.626;2022-08-01T14:23:53;0.63;;;0.60;;
8312;SDS011;4194;43.408;24.626;2022-08-01T14:26:20;4.38;;;0.80;;
8312;SDS011;4194;43.408;24.626;2022-08-01T14:28:45;3.35;;;0.82;;
8312;SDS011;4194;43.408;24.626;2022-08-01T14:31:11;2.33;;;0.60;;
8312;SDS011;4194;43.408;24.626;2022-08-01T14:33:37;2.58;;;0.95;;
8312;SDS011;4194;43.408;24.626;2022-08-01T14:36:03;0.98;;;0.75;;
8312;SDS011;4194;43.408;24.626;2022-08-01T14:38:28;1.50;;;0.60;;
8312;SDS011;4194;43.408;24.626;2022-08-01T14:40:54;0.70;;;0.70;;
8312;SDS011;4194;43.408;24.626;2022-08-01T14:43:20;0.80;;;0.77;;
8312;SDS011;4194;43.408;24.626;2022-08-01T14:45:46;1.13;;;0.75;;
8312;SDS011;4194;43.408;24.626;2022-08-01T14:48:15;0.70;;;0.70;;
8312;SDS011;4194;43.408;24.626;2022-08-01T14:50:41;0.77;;;0.65;;
8312;SDS011;4194;43.408;24.626;2022-08-01T14:53:07;0.50;;;0.50;;
8312;SDS011;4194;43.408;24.626;2022-08-01T14:55:33;1.85;;;0.63;;
8312;SDS011;4194;43.408;24.626;2022-08-01T14:57:59;0.68;;;0.68;;
8312;SDS011;4194;43.408;24.626;2022-08-01T15:00:24;1.05;;;0.50;;
8312;SDS011;4194;43.408;24.626;2022-08-01T15:02:50;2.53;;;0.60;;
8312;SDS011;4194;43.408;24.626;2022-08-01T15:05:16;1.95;;;0.82;;
8312;SDS011;4194;43.408;24.626;2022-08-01T15:07:41;0.90;;;0.90;;
8312;SDS011;4194;43.408;24.626;2022-08-01T15:10:07;1.13;;;0.93;;
8312;SDS011;4194;43.408;24.626;2022-08-01T15:12:34;0.80;;;0.80;;
8312;SDS011;4194;43.408;24.626;2022-08-01T15:15:00;0.93;;;0.93;;
8312;SDS011;4194;43.408;24.626;2022-08-01T15:17:30;2.75;;;1.10;;
8312;SDS011;4194;43.408;24.626;2022-08-01T15:19:59;1.35;;;1.25;;
8312;SDS011;4194;43.408;24.626;2022-08-01T15:22:26;2.15;;;0.90;;
8312;SDS011;4194;43.408;24.626;2022-08-01T15:24:54;1.00;;;1.00;;
8312;SDS011;4194;43.408;24.626;2022-08-01T15:27:21;2.30;;;0.80;;
8312;SDS011;4194;43.408;24.626;2022-08-01T15:29:47;1.10;;;0.90;;
8312;SDS011;4194;43.408;24.626;2022-08-01T15:32:13;3.42;;;1.00;;
8312;SDS011;4194;43.408;24.626;2022-08-01T15:34:40;1.48;;;0.60;;
8312;SDS011;4194;43.408;24.626;2022-08-01T15:37:06;0.95;;;0.80;;
8312;SDS011;4194;43.408;24.626;2022-08-01T15:39:32;1.00;;;0.82;;
8312;SDS011;4194;43.408;24.626;2022-08-01T15:41:59;1.38;;;0.88;;
8312;SDS011;4194;43.408;24.626;2022-08-01T15:44:28;1.10;;;1.00;;
8312;SDS011;4194;43.408;24.626;2022-08-01T15:46:54;1.33;;;0.70;;
8312;SDS011;4194;43.408;24.626;2022-08-01T15:49:20;0.73;;;0.60;;
8312;SDS011;4194;43.408;24.626;2022-08-01T15:51:47;1.75;;;0.80;;